Here is the Quick Look data you requested

The Data originates at the National Weather Service, and is made available here by the UAlbany Department of Atmospheric and Environmental Sciences

Surface Observations

K1V4 230154Z AUTO M11/M21 A3030 RMK AO1 SLP281 T11111206=
KBTV 230154Z 31006KT 10SM CLR M09/M19 A3041 RMK AO2 SLP304 T10891189=
KDDH 230154Z AUTO 33007KT 10SM CLR M08/M22 A3035 RMK AO2 SLP292 T10831222=
KEFK 230155Z AUTO 31008KT 280V340 10SM CLR M12/M21 A3030 RMK AO2 T11231206=
KMPV 230151Z AUTO VRB03KT 10SM CLR M12/M21 A3033 RMK AO2 SLP300 T11221206=
KMVL 230154Z AUTO 00000KT 10SM CLR M11/M22 A3035 RMK AO2 SLP296 T11111222=
KRUT 230156Z AUTO 33007KT 10SM CLR M11/M20 A3035 RMK AO2 SLP301 T11061200
 FZRANO $=
KVSF 230154Z AUTO 35003KT 10SM CLR M09/M23 A3034 RMK AO2 SLP285 T10891233=